HTDA/DAR METAR and TAF weather

Enter ICAO airport designator
Station Type Date Time Source
HTDA METAR 2022/12/05 13:00 UTC NOAA

HTDA 051300Z 08010KT 9999 FEW029 31/22 Q1010 NOSIG


Station Type Date Time Source
HTDA Decoded METAR 2022/12/05 13:00 UTC NOAA

Dar Es Salaam Airport, Tanzania (HTDA) 06-52S 039-12E 55M
Dec 05, 2022 - 08:00 AM EST / 2022.12.05 1300 UTC
Wind: from the E (080 degrees) at 12 MPH (10 KT):0
Visibility: greater than 7 mile(s):0
Sky conditions: mostly clear
Temperature: 87 F (31 C)
Heat index: 92.3 F (33.5 C):1
Dew Point: 71 F (22 C)
Relative Humidity: 58%
Pressure (altimeter): 29.83 in. Hg (1010 hPa)
ob: HTDA 051300Z 08010KT 9999 FEW029 31/22 Q1010 NOSIG
cycle: 13

Station Type Date Time Source
HTDA TAF 2022/12/05 12:03 UTC NOAA

TAF TAF HTDA 051100Z 0512/0618 07010KT 9999 SCT036

Example: see airport list